createdAt,value
2022-09-20T00:01:28.843Z,101180.00
2022-09-20T00:03:59.072Z,101147.81
2022-09-20T00:06:29.893Z,101182.16
2022-09-20T00:08:59.489Z,101187.72
2022-09-20T00:11:29.935Z,101181.47
2022-09-20T00:14:01.400Z,101190.72
2022-09-20T00:16:32.547Z,101185.34
2022-09-20T00:19:04.222Z,101160.56
2022-09-20T00:21:34.920Z,101191.88
2022-09-20T00:24:03.711Z,101187.66
2022-09-20T00:26:32.015Z,101184.59
2022-09-20T00:29:01.761Z,101191.66
2022-09-20T00:31:30.219Z,101207.66
2022-09-20T00:34:16.923Z,101202.13
2022-09-20T00:36:45.983Z,101197.38
2022-09-20T00:39:16.372Z,101200.41
2022-09-20T00:41:45.447Z,101197.00
2022-09-20T00:44:49.140Z,101198.81
2022-09-20T00:47:31.300Z,101201.94
2022-09-20T00:50:07.028Z,101193.44
2022-09-20T00:52:37.361Z,101198.06
2022-09-20T00:55:09.131Z,101206.59
2022-09-20T00:57:39.427Z,101198.31
2022-09-20T01:00:13.594Z,101198.63
2022-09-20T01:02:52.685Z,101174.03
2022-09-20T01:05:21.495Z,101195.94
2022-09-20T01:07:51.749Z,101191.25
2022-09-20T01:10:20.272Z,101190.56
2022-09-20T01:12:50.290Z,101198.63
2022-09-20T01:15:21.045Z,101197.09
2022-09-20T01:17:54.029Z,101199.56
2022-09-20T01:20:26.565Z,101196.69
2022-09-20T01:23:16.889Z,101191.38
2022-09-20T01:26:22.432Z,101195.31
2022-09-20T01:29:01.012Z,101195.41
2022-09-20T01:31:35.895Z,101200.94
2022-09-20T01:34:09.846Z,101196.88
2022-09-20T01:36:41.071Z,101186.72
2022-09-20T01:39:13.919Z,101200.16
2022-09-20T01:41:49.663Z,101197.78
2022-09-20T01:44:29.429Z,101199.78
2022-09-20T01:47:04.061Z,101183.19
2022-09-20T01:49:41.964Z,101193.69
2022-09-20T01:52:56.261Z,101192.09
2022-09-20T01:55:52.663Z,101187.84
2022-09-20T01:58:53.556Z,101191.38
2022-09-20T02:02:01.691Z,101181.84
2022-09-20T02:05:07.771Z,101182.53
2022-09-20T02:07:59.049Z,101183.25
2022-09-20T02:10:58.784Z,101181.44
2022-09-20T02:13:33.053Z,101195.25
2022-09-20T02:16:37.875Z,101191.06
2022-09-20T02:19:36.464Z,101186.75
2022-09-20T02:22:30.109Z,101183.97
2022-09-20T02:25:08.239Z,101187.91
2022-09-20T02:27:47.103Z,101181.59
2022-09-20T02:30:28.386Z,101186.41
2022-09-20T02:33:17.359Z,101188.25
2022-09-20T02:36:00.132Z,101176.22
2022-09-20T02:38:42.113Z,101175.25
2022-09-20T02:41:52.888Z,101170.72
2022-09-20T02:44:30.500Z,101176.09
2022-09-20T02:47:10.024Z,101165.22
2022-09-20T02:49:53.505Z,101161.56
2022-09-20T02:52:31.139Z,101169.31
2022-09-20T02:55:07.997Z,101162.59
2022-09-20T02:57:49.671Z,101178.28
2022-09-20T03:00:25.316Z,101151.63
2022-09-20T03:03:07.672Z,101166.59
2022-09-20T03:05:47.649Z,101162.78
2022-09-20T03:08:36.891Z,101169.16
2022-09-20T03:11:17.222Z,101167.88
2022-09-20T03:13:57.144Z,101174.22
2022-09-20T03:16:36.609Z,101175.66
2022-09-20T03:19:14.762Z,101162.81
2022-09-20T03:21:57.384Z,101173.44
2022-09-20T03:24:40.783Z,101174.41
2022-09-20T03:27:19.965Z,101170.47
2022-09-20T03:30:04.795Z,101178.91
2022-09-20T03:32:50.841Z,101179.94
2022-09-20T03:35:31.161Z,101107.66
2022-09-20T03:38:13.607Z,101008.56
2022-09-20T03:41:00.488Z,101180.75
2022-09-20T03:43:45.313Z,101174.25
2022-09-20T03:46:19.080Z,101172.00
2022-09-20T03:49:11.168Z,101175.53
2022-09-20T03:51:50.191Z,101172.41
2022-09-20T03:54:50.418Z,101169.03
2022-09-20T03:57:47.449Z,101168.00
2022-09-20T04:00:24.916Z,101148.09
2022-09-20T04:03:15.390Z,101171.75
2022-09-20T04:05:56.914Z,101179.47
2022-09-20T04:08:42.008Z,101174.53
2022-09-20T04:11:19.216Z,101174.25
2022-09-20T04:13:56.376Z,101176.66
2022-09-20T04:16:36.660Z,101180.19
2022-09-20T04:19:14.777Z,101190.44
2022-09-20T04:21:49.795Z,101184.78
2022-09-20T04:24:24.576Z,101177.41
2022-09-20T04:26:58.239Z,101184.63
2022-09-20T04:29:36.854Z,101185.50
2022-09-20T04:32:17.621Z,101160.91
2022-09-20T04:35:10.246Z,101192.34
2022-09-20T04:37:39.810Z,101185.16
2022-09-20T04:40:27.755Z,101193.47
2022-09-20T04:43:40.855Z,101202.31
2022-09-20T04:46:52.721Z,101192.66
2022-09-20T04:49:59.740Z,101211.03
2022-09-20T04:53:01.155Z,101211.84
2022-09-20T04:55:50.744Z,101217.97
2022-09-20T04:58:42.363Z,101215.44
2022-09-20T05:01:48.934Z,101224.81
2022-09-20T05:04:49.112Z,101214.00
2022-09-20T05:07:58.386Z,101209.22
2022-09-20T05:10:55.052Z,101212.03
2022-09-20T05:13:36.448Z,101223.38
2022-09-20T05:16:09.712Z,101218.44
2022-09-20T05:19:08.144Z,101217.13
2022-09-20T05:21:51.248Z,101201.56
2022-09-20T05:24:47.118Z,101223.19
2022-09-20T05:27:33.273Z,101220.75
2022-09-20T05:30:06.672Z,101201.47
2022-09-20T05:32:45.358Z,101222.72
2022-09-20T05:35:20.939Z,101203.25
2022-09-20T05:38:01.628Z,101227.94
2022-09-20T05:40:34.946Z,101230.59
2022-09-20T05:43:12.531Z,101228.91
2022-09-20T05:46:04.078Z,101229.84
2022-09-20T05:48:41.575Z,101157.09
2022-09-20T05:51:23.189Z,101237.00
2022-09-20T05:54:32.623Z,101246.38
2022-09-20T05:57:12.836Z,101234.59
2022-09-20T05:59:54.756Z,101233.09
2022-09-20T06:02:35.132Z,101208.50
2022-09-20T06:05:13.020Z,101244.34
2022-09-20T06:08:03.800Z,101239.84
2022-09-20T06:10:52.480Z,101243.97
2022-09-20T06:13:36.633Z,101245.13
2022-09-20T06:16:07.164Z,101249.13
2022-09-20T06:18:41.519Z,101248.31
2022-09-20T06:21:24.219Z,101252.50
2022-09-20T06:23:57.780Z,101257.63
2022-09-20T06:26:30.276Z,101254.22
2022-09-20T06:29:04.367Z,101241.44
2022-09-20T06:31:32.748Z,101254.50
2022-09-20T06:34:06.347Z,101256.53
2022-09-20T06:36:53.864Z,101256.03
2022-09-20T06:39:48.247Z,101259.69
2022-09-20T06:42:18.036Z,101258.97
2022-09-20T06:44:46.290Z,101263.47
2022-09-20T06:47:15.711Z,101242.69
2022-09-20T06:49:44.606Z,101249.22
2022-09-20T06:52:14.763Z,101239.56
2022-09-20T06:54:45.834Z,101246.00
2022-09-20T06:57:17.646Z,101248.75
2022-09-20T06:59:47.307Z,101240.78
2022-09-20T07:02:15.565Z,101233.31
2022-09-20T07:04:44.721Z,101235.97
2022-09-20T07:07:19.116Z,101236.59
2022-09-20T07:09:47.632Z,101229.50
2022-09-20T07:12:15.904Z,101231.28
2022-09-20T07:14:44.437Z,101228.63
2022-09-20T07:17:14.821Z,101232.41
2022-09-20T07:19:43.159Z,101231.09
2022-09-20T07:22:11.378Z,101230.81
2022-09-20T07:24:41.324Z,101230.50
2022-09-20T07:27:11.336Z,101229.16
2022-09-20T07:29:41.053Z,101230.41
2022-09-20T07:32:09.701Z,101239.00
2022-09-20T07:34:40.628Z,101237.69
2022-09-20T07:37:08.905Z,101245.41
2022-09-20T07:39:37.114Z,101238.69
2022-09-20T07:42:07.504Z,101247.41
2022-09-20T07:44:35.826Z,101247.75
2022-09-20T07:47:04.139Z,101243.47
2022-09-20T07:49:32.317Z,101239.63
2022-09-20T07:52:02.125Z,101239.56
2022-09-20T07:54:30.351Z,101249.63
2022-09-20T07:56:58.629Z,101247.19
2022-09-20T07:59:27.131Z,101249.00
2022-09-20T08:01:55.428Z,101258.19
2022-09-20T08:04:23.741Z,101258.66
2022-09-20T08:06:52.215Z,101248.28
2022-09-20T08:09:22.861Z,101251.25
2022-09-20T08:11:51.463Z,101250.16
2022-09-20T08:14:20.919Z,101257.34
2022-09-20T08:16:51.869Z,101254.59
2022-09-20T08:19:22.268Z,101253.25
2022-09-20T08:21:53.409Z,101253.19
2022-09-20T08:24:23.236Z,101249.31
2022-09-20T08:26:51.798Z,101251.34
2022-09-20T08:29:20.107Z,101249.25
2022-09-20T08:31:48.459Z,101257.53
2022-09-20T08:34:17.810Z,101263.56
2022-09-20T08:36:50.213Z,101258.78
2022-09-20T08:42:21.809Z,101221.19
2022-09-20T08:45:00.939Z,101261.53
2022-09-20T08:47:32.338Z,101257.00
2022-09-20T08:50:17.716Z,101256.47
2022-09-20T08:52:49.436Z,101200.66
2022-09-20T08:55:20.604Z,101264.97
2022-09-20T08:57:53.272Z,101258.56
2022-09-20T09:00:23.567Z,101255.16
2022-09-20T09:02:55.480Z,101256.41
2022-09-20T09:05:33.503Z,101231.88
2022-09-20T09:08:07.137Z,101252.38
2022-09-20T09:10:42.862Z,101249.03
2022-09-20T09:13:23.606Z,101251.53
2022-09-20T09:15:57.313Z,101234.38
2022-09-20T09:18:33.339Z,101259.50
2022-09-20T09:21:04.250Z,101268.44
2022-09-20T09:23:41.635Z,101267.63
2022-09-20T09:26:18.204Z,101253.59
2022-09-20T09:28:48.551Z,101256.13
2022-09-20T09:31:25.849Z,101256.13
2022-09-20T09:33:54.309Z,101246.94
2022-09-20T09:36:24.951Z,101257.53
2022-09-20T09:39:12.146Z,101249.59
2022-09-20T09:41:41.182Z,101253.16
2022-09-20T09:44:23.696Z,101242.34
2022-09-20T09:46:53.682Z,101252.56
2022-09-20T09:49:23.591Z,101223.28
2022-09-20T09:52:04.392Z,101237.78
2022-09-20T09:54:36.159Z,101241.19
2022-09-20T09:57:21.220Z,101235.81
2022-09-20T10:00:11.255Z,101240.03
2022-09-20T10:03:20.711Z,101234.00
2022-09-20T10:06:02.362Z,101225.88
2022-09-20T10:08:39.631Z,101215.25
2022-09-20T10:11:23.102Z,101219.47
2022-09-20T10:14:03.171Z,101222.03
2022-09-20T10:16:51.457Z,101218.97
2022-09-20T10:19:26.814Z,101217.72
2022-09-20T10:22:02.444Z,101223.03
2022-09-20T10:24:42.119Z,101161.25
2022-09-20T10:27:30.447Z,101231.66
2022-09-20T10:30:08.742Z,101218.94
2022-09-20T10:32:50.066Z,101216.88
2022-09-20T10:35:47.502Z,101216.47
2022-09-20T10:38:19.970Z,101209.56
2022-09-20T10:41:31.841Z,101212.88
2022-09-20T10:44:32.036Z,101211.63
2022-09-20T10:47:10.000Z,101196.94
2022-09-20T10:49:50.897Z,101199.16
2022-09-20T10:52:33.304Z,101201.66
2022-09-20T10:55:26.210Z,101201.31
2022-09-20T10:58:24.768Z,101198.31
2022-09-20T11:01:02.343Z,101200.59
2022-09-20T11:03:47.420Z,101188.53
2022-09-20T11:06:26.109Z,101184.28
2022-09-20T11:08:59.540Z,101186.09
2022-09-20T11:11:33.237Z,101193.81
2022-09-20T11:14:06.108Z,101186.16
2022-09-20T11:16:41.888Z,101182.34
2022-09-20T11:19:20.287Z,101184.41
2022-09-20T11:21:55.237Z,101193.66
2022-09-20T11:24:32.711Z,101185.25
2022-09-20T11:27:05.490Z,101181.63
2022-09-20T11:29:40.257Z,101177.75
2022-09-20T11:32:15.900Z,101185.06
2022-09-20T11:34:53.673Z,101184.56
2022-09-20T11:57:01.025Z,101179.47
2022-09-20T11:59:34.223Z,101180.97
2022-09-20T12:02:05.722Z,101180.44
2022-09-20T12:04:38.210Z,101178.88
2022-09-20T12:07:17.950Z,101171.97
2022-09-20T12:09:52.766Z,101168.66
2022-09-20T12:12:33.791Z,101163.31
2022-09-20T12:15:05.609Z,101114.53
2022-09-20T12:18:09.768Z,101158.38
2022-09-20T12:21:07.361Z,101158.38
2022-09-20T12:24:17.344Z,101152.44
2022-09-20T12:26:47.641Z,101154.81
2022-09-20T12:29:52.970Z,101146.97
2022-09-20T12:32:46.493Z,101137.47
2022-09-20T12:36:05.883Z,101139.31
2022-09-20T12:38:46.563Z,101129.53
2022-09-20T12:41:27.534Z,101124.59
2022-09-20T12:44:00.774Z,101105.44
2022-09-20T12:46:36.838Z,101094.13
2022-09-20T12:49:37.582Z,101114.16
2022-09-20T12:52:23.727Z,101119.63
2022-09-20T12:54:56.300Z,101116.44
2022-09-20T12:57:32.507Z,101104.72
2022-09-20T13:00:03.499Z,101110.44
2022-09-20T13:02:58.764Z,101110.13
2022-09-20T13:05:38.241Z,101105.25
2022-09-20T13:08:16.456Z,101097.28
2022-09-20T13:10:50.232Z,101055.28
2022-09-20T13:13:34.993Z,101104.19
2022-09-20T13:16:06.111Z,101096.81
2022-09-20T13:18:37.724Z,101095.84
2022-09-20T13:21:09.124Z,101084.53
2022-09-20T13:23:47.415Z,101085.75
2022-09-20T13:26:17.192Z,101055.84
2022-09-20T13:28:52.511Z,101094.06
2022-09-20T13:31:28.618Z,101090.13
2022-09-20T13:33:57.157Z,101086.09
2022-09-20T13:36:31.784Z,101080.38
2022-09-20T13:39:00.256Z,101081.81
2022-09-20T13:41:32.642Z,101076.69
2022-09-20T13:44:01.715Z,101072.19
2022-09-20T13:46:31.892Z,101077.50
2022-09-20T13:49:14.966Z,101072.38
2022-09-20T13:51:44.911Z,101068.59
2022-09-20T13:54:21.882Z,101066.91
2022-09-20T13:56:51.322Z,101063.34
2022-09-20T13:59:19.805Z,101060.59
2022-09-20T14:01:52.375Z,101058.47
2022-09-20T14:04:23.453Z,101057.25
2022-09-20T14:06:56.464Z,101040.63
2022-09-20T14:09:31.623Z,101047.88
2022-09-20T14:12:01.257Z,101046.69
2022-09-20T14:14:30.983Z,101042.75
2022-09-20T14:17:01.449Z,101038.34
2022-09-20T14:19:33.709Z,101040.03
2022-09-20T14:22:07.039Z,100999.06
2022-09-20T14:24:37.323Z,101035.38
2022-09-20T14:27:16.032Z,101033.09
2022-09-20T14:29:46.329Z,101028.59
2022-09-20T14:32:29.756Z,101025.97
2022-09-20T14:35:02.968Z,101030.25
2022-09-20T14:37:36.963Z,101005.47
2022-09-20T14:40:17.293Z,101027.75
2022-09-20T14:42:48.221Z,101025.00
2022-09-20T14:45:24.383Z,101030.47
2022-09-20T14:48:28.126Z,101021.53
2022-09-20T14:51:12.554Z,100891.47
2022-09-20T14:53:42.248Z,101019.69
2022-09-20T14:56:12.712Z,101013.16
2022-09-20T14:59:05.619Z,101012.59
2022-09-20T15:01:34.993Z,101016.03
2022-09-20T15:04:10.327Z,101018.53
2022-09-20T15:06:40.272Z,100997.53
2022-09-20T15:09:13.426Z,101009.47
2022-09-20T15:11:42.181Z,101010.38
2022-09-20T15:14:10.413Z,101003.63
2022-09-20T15:16:38.801Z,100998.97
2022-09-20T15:19:08.520Z,101012.09
2022-09-20T15:21:37.247Z,101009.81
2022-09-20T15:24:05.801Z,101013.41
2022-09-20T15:26:35.632Z,101014.59
2022-09-20T15:29:03.988Z,101010.91
2022-09-20T15:31:32.386Z,101009.69
2022-09-20T15:34:00.670Z,101001.25
2022-09-20T15:36:32.017Z,101001.94
2022-09-20T15:39:00.707Z,100995.88
2022-09-20T15:41:31.438Z,101006.22
2022-09-20T15:44:01.740Z,101003.72
2022-09-20T15:46:30.244Z,101003.72
2022-09-20T15:49:00.627Z,100998.47
2022-09-20T15:51:31.405Z,101006.53
2022-09-20T15:54:02.602Z,101002.00
2022-09-20T15:56:32.407Z,101000.22
2022-09-20T15:59:04.248Z,100935.81
2022-09-20T16:01:35.767Z,101003.09
2022-09-20T16:04:07.282Z,101013.25
2022-09-20T16:06:36.298Z,101008.25
2022-09-20T16:09:04.914Z,101015.53
2022-09-20T16:11:33.252Z,101013.25
2022-09-20T16:14:02.972Z,101019.19
2022-09-20T16:16:37.575Z,101015.28
2022-09-20T16:19:24.092Z,100986.00
2022-09-20T16:21:58.324Z,101014.06
2022-09-20T16:24:29.327Z,101027.44
2022-09-20T16:26:57.822Z,101021.44
2022-09-20T16:29:29.491Z,101026.09
2022-09-20T16:31:59.728Z,101022.63
2022-09-20T16:34:31.326Z,101020.78
2022-09-20T16:37:01.413Z,101030.72
2022-09-20T16:39:31.193Z,101031.22
2022-09-20T16:42:03.736Z,101025.91
2022-09-20T16:44:34.387Z,101036.41
2022-09-20T16:47:02.639Z,101037.53
2022-09-20T16:49:30.880Z,101033.44
2022-09-20T16:51:59.072Z,101046.69
2022-09-20T16:54:31.599Z,101032.81
2022-09-20T16:57:00.485Z,101043.16
2022-09-20T16:59:29.250Z,101041.56
2022-09-20T17:01:59.000Z,101044.94
2022-09-20T17:04:27.325Z,101052.53
2022-09-20T17:06:55.755Z,101051.34
2022-09-20T17:09:24.052Z,101046.38
2022-09-20T17:11:53.790Z,101058.16
2022-09-20T17:14:25.089Z,101060.50
2022-09-20T17:16:53.459Z,101058.22
2022-09-20T17:19:23.033Z,101056.16
2022-09-20T17:21:51.796Z,101062.25
2022-09-20T17:24:20.983Z,101066.91
2022-09-20T17:26:50.835Z,101068.38
2022-09-20T17:29:21.140Z,101050.22
2022-09-20T17:31:55.575Z,101075.13
2022-09-20T17:34:26.448Z,101077.84
2022-09-20T17:39:23.924Z,101087.03
2022-09-20T17:41:52.333Z,101088.50
2022-09-20T17:44:20.802Z,101093.94
2022-09-20T17:46:51.290Z,101093.63
2022-09-20T17:49:22.276Z,101044.56
2022-09-20T17:51:53.555Z,101099.78
2022-09-20T17:54:22.832Z,101109.53
2022-09-20T17:56:52.492Z,101093.72
2022-09-20T17:59:21.481Z,101114.91
2022-09-20T18:01:51.424Z,101117.91
2022-09-20T18:04:21.067Z,101083.41
2022-09-20T18:06:52.560Z,101121.06
2022-09-20T18:09:23.089Z,101062.84
2022-09-20T18:11:52.944Z,101054.97
2022-09-20T18:14:23.514Z,101061.16
2022-09-20T18:16:53.148Z,101129.44
2022-09-20T18:19:22.767Z,101130.97
2022-09-20T18:21:52.573Z,101134.56
2022-09-20T18:24:20.825Z,101134.44
2022-09-20T18:26:49.155Z,101140.06
2022-09-20T18:29:18.404Z,101142.97
2022-09-20T18:31:49.174Z,101143.41
2022-09-20T18:34:19.585Z,101149.00
2022-09-20T18:36:51.697Z,101148.63
2022-09-20T18:39:23.232Z,101151.78
2022-09-20T18:41:53.323Z,101149.16
2022-09-20T18:44:22.291Z,101158.75
2022-09-20T18:46:53.581Z,101159.53
2022-09-20T18:49:22.585Z,101179.41
2022-09-20T18:51:51.037Z,101168.59
2022-09-20T18:54:19.730Z,101177.38
2022-09-20T18:56:51.806Z,101174.13
2022-09-20T18:59:22.441Z,101175.44
2022-09-20T19:02:13.784Z,101180.19
2022-09-20T19:04:58.914Z,101185.59
2022-09-20T19:07:37.802Z,101186.03
2022-09-20T19:10:14.782Z,101191.19
2022-09-20T19:12:51.496Z,101191.13
2022-09-20T19:15:37.811Z,101195.97
2022-09-20T19:18:23.624Z,101197.66
2022-09-20T19:20:57.795Z,101195.25
2022-09-20T19:23:53.069Z,101200.47
2022-09-20T19:26:23.749Z,101180.88
2022-09-20T19:28:56.286Z,101176.94
2022-09-20T19:31:26.988Z,101211.25
2022-09-20T19:33:57.572Z,101215.44
2022-09-20T19:36:31.195Z,101210.03
2022-09-20T19:39:07.891Z,101179.38
2022-09-20T19:41:48.478Z,101214.31
2022-09-20T19:44:36.228Z,101212.94
2022-09-20T19:47:22.553Z,101217.97
2022-09-20T19:49:55.097Z,101211.53
2022-09-20T19:52:24.363Z,101217.63
2022-09-20T19:54:53.522Z,101200.97
2022-09-20T19:57:24.384Z,101218.28
2022-09-20T19:59:55.848Z,101220.97
2022-09-20T20:02:24.805Z,101219.31
2022-09-20T20:04:53.402Z,101219.66
2022-09-20T20:07:29.664Z,101225.75
2022-09-20T20:10:07.213Z,101233.84
2022-09-20T20:12:44.395Z,101233.00
2022-09-20T20:15:22.971Z,101236.94
2022-09-20T20:17:57.769Z,101230.19
2022-09-20T20:20:35.913Z,101233.09
2022-09-20T20:23:32.516Z,101236.69
2022-09-20T20:26:07.021Z,101242.50
2022-09-20T20:28:36.117Z,101242.03
2022-09-20T20:31:06.258Z,101247.81
2022-09-20T20:33:34.622Z,101246.00
2022-09-20T20:36:03.506Z,101243.84
2022-09-20T20:38:32.680Z,101251.28
2022-09-20T20:41:04.667Z,101257.06
2022-09-20T20:43:33.350Z,101258.47
2022-09-20T20:46:01.820Z,101254.25
2022-09-20T20:48:31.976Z,101259.47
2022-09-20T20:51:04.752Z,101250.03
2022-09-20T20:53:34.622Z,101261.41
2022-09-20T20:56:08.399Z,101264.09
2022-09-20T20:58:40.785Z,101261.75
2022-09-20T21:01:11.805Z,101238.03
2022-09-20T21:03:42.991Z,101252.53
2022-09-20T21:06:13.229Z,101266.38
2022-09-20T21:08:48.299Z,101274.00
2022-09-20T21:11:23.954Z,101259.00
2022-09-20T21:13:52.555Z,101267.25
2022-09-20T21:16:23.021Z,101272.66
2022-09-20T21:18:52.873Z,101267.25
2022-09-20T21:21:22.733Z,101272.34
2022-09-20T21:23:52.802Z,101269.16
2022-09-20T21:26:22.200Z,101264.94
2022-09-20T21:28:52.595Z,101267.81
2022-09-20T21:31:22.789Z,101273.09
2022-09-20T21:33:53.072Z,101253.75
2022-09-20T21:36:23.632Z,101268.03
2022-09-20T21:38:52.097Z,101266.22
2022-09-20T21:41:22.495Z,101258.69
2022-09-20T21:43:54.003Z,101265.41
2022-09-20T21:46:23.806Z,101272.53
2022-09-20T21:48:53.516Z,101269.50
2022-09-20T21:51:22.280Z,101263.47
2022-09-20T21:53:54.147Z,101265.84
2022-09-20T21:56:22.475Z,101267.91
2022-09-20T21:58:50.673Z,101264.53
2022-09-20T22:01:23.891Z,101266.56
2022-09-20T22:03:57.509Z,101218.69
2022-09-20T22:06:27.872Z,101264.69
2022-09-20T22:08:58.467Z,101266.72
2022-09-20T22:11:29.632Z,101263.19
2022-09-20T22:13:58.993Z,101258.34
2022-09-20T22:16:28.881Z,101260.19
2022-09-20T22:18:59.781Z,101263.91
2022-09-20T22:21:29.366Z,101269.31
2022-09-20T22:23:59.521Z,101271.16
2022-09-20T22:26:30.348Z,101266.28
2022-09-20T22:28:59.014Z,101262.91
2022-09-20T22:31:29.099Z,101267.63
2022-09-20T22:34:01.053Z,101257.00
2022-09-20T22:36:31.771Z,101265.25
2022-09-20T22:39:00.203Z,101239.81
2022-09-20T22:41:28.838Z,101269.47
2022-09-20T22:43:57.218Z,101266.09
2022-09-20T22:46:27.179Z,101251.78
2022-09-20T22:48:55.401Z,101260.69
2022-09-20T22:51:27.032Z,101270.31
2022-09-20T22:53:55.717Z,101271.66
2022-09-20T22:56:25.405Z,101274.03
2022-09-20T22:58:55.881Z,101274.91
2022-09-20T23:01:25.834Z,101271.88
2022-09-20T23:03:56.328Z,101282.81
2022-09-20T23:06:28.084Z,101281.66
2022-09-20T23:08:59.443Z,101277.75
2022-09-20T23:11:28.455Z,101270.88
2022-09-20T23:13:58.332Z,101285.19
2022-09-20T23:16:28.784Z,101247.75
2022-09-20T23:18:58.740Z,101247.22
2022-09-20T23:21:29.517Z,101289.19
2022-09-20T23:24:00.179Z,101287.19
2022-09-20T23:26:31.140Z,101287.47
2022-09-20T23:29:01.328Z,101293.03
2022-09-20T23:31:31.890Z,101296.91
2022-09-20T23:34:01.716Z,101295.84
2022-09-20T23:36:34.028Z,101261.13
2022-09-20T23:39:02.319Z,101287.09
2022-09-20T23:41:31.081Z,101294.13
2022-09-20T23:43:59.406Z,101290.41
2022-09-20T23:46:28.128Z,101284.97
2022-09-20T23:48:56.397Z,101288.28
2022-09-20T23:51:26.844Z,101284.06
2022-09-20T23:53:56.566Z,101283.53
2022-09-20T23:56:28.054Z,101285.53
2022-09-20T23:58:57.950Z,101292.94
